Temp: 3.7°C   Baro: 1036.4mb
  Wind: 0.0mph   Dir: W (273°)
  Rain: 0.0mm (0.0mm/hr)
  Solar: 0W/m2  Hum: 84%

Historic data

Bath Spa Weather Station Historical Data
Daily Summary for December 5, 2019 Units:  Both    English   Metric
Daily Weekly Monthly Yearly Custom
  High: Low: Average:
Temperature: 51.3 °F /  10.7 °C 30 °F /  -1.1 °C 41.1 °F /  5.1 °C
Dew Point: 47.8 °F /  8.8 °C 28.2 °F /  -2.1 °C 38 °F /  3.3 °C
Humidity: 95.6% 78% 89%
Wind Speed: 15mph /  24.1km/h - 3.4mph /  5.5km/h
Wind Gust: 30mph /  48.3km/h - -
Wind- - SW
Pressure: 30.16 in /  1021.2 hPa 29.88 in /  1011.7 hPa -
Precipitation: 0.01 in /  0.25 mm    
Historical Graphs
 
 
Tabular Data for December 5, 2019
Time Temperature Dew Point Pressure Wind Wind Speed Wind Gust Humidity Rainfall Rate (Hourly) solar
00:09 30.6 °F /  -0.8 °C 28.8 °F /  -1.8 °C 30.16in /  1021.2hPa Calm     93% 0.00in /  0mm 0 W/m2
00:14 30.6 °F /  -0.8 °C 28.8 °F /  -1.8 °C 30.16in /  1021.2hPa Calm     93% 0.00in /  0mm 0 W/m2
00:19 30.6 °F /  -0.8 °C 28.8 °F /  -1.8 °C 30.16in /  1021.2hPa Calm     93% 0.00in /  0mm 0 W/m2
00:24 30.4 °F /  -0.9 °C 28.6 °F /  -1.9 °C 30.16in /  1021.2hPa Calm     93% 0.00in /  0mm 0 W/m2
00:29 30.4 °F /  -0.9 °C 28.6 °F /  -1.9 °C 30.16in /  1021.2hPa Calm     93% 0.00in /  0mm 0 W/m2
00:34 30.4 °F /  -0.9 °C 28.6 °F /  -1.9 °C 30.16in /  1021.2hPa Calm     93% 0.00in /  0mm 0 W/m2
00:39 30.4 °F /  -0.9 °C 28.6 °F /  -1.9 °C 30.16in /  1021.2hPa Calm     93% 0.00in /  0mm 0 W/m2
00:44 30.4 °F /  -0.9 °C 28.6 °F /  -1.9 °C 30.16in /  1021.2hPa Calm     93% 0.00in /  0mm 0 W/m2
00:49 30.4 °F /  -0.9 °C 28.6 °F /  -1.9 °C 30.15in /  1020.9hPa Calm     93% 0.00in /  0mm 0 W/m2
00:54 30.4 °F /  -0.9 °C 28.6 °F /  -1.9 °C 30.15in /  1020.9hPa Calm     93% 0.00in /  0mm 0 W/m2
00:59 30.4 °F /  -0.9 °C 28.6 °F /  -1.9 °C 30.15in /  1020.9hPa Calm     93% 0.00in /  0mm 0 W/m2
01:04 30.4 °F /  -0.9 °C 28.6 °F /  -1.9 °C 30.15in /  1020.9hPa Calm     93% 0.00in /  0mm 0 W/m2
01:09 30.4 °F /  -0.9 °C 28.6 °F /  -1.9 °C 30.15in /  1020.9hPa Calm     93% 0.00in /  0mm 0 W/m2
01:14 30.2 °F /  -1 °C 28.4 °F /  -2 °C 30.15in /  1020.9hPa Calm     93% 0.00in /  0mm 0 W/m2
01:19 30.2 °F /  -1 °C 28.4 °F /  -2 °C 30.15in /  1020.9hPa Calm     93% 0.00in /  0mm 0 W/m2
01:24 30 °F /  -1.1 °C 28.2 °F /  -2.1 °C 30.15in /  1020.9hPa Calm     93% 0.00in /  0mm 0 W/m2
01:29 30 °F /  -1.1 °C 28.2 °F /  -2.1 °C 30.15in /  1020.9hPa Calm     93% 0.00in /  0mm 0 W/m2
01:34 30 °F /  -1.1 °C 28.2 °F /  -2.1 °C 30.15in /  1020.9hPa Calm     93% 0.00in /  0mm 0 W/m2
01:39 30 °F /  -1.1 °C 28.2 °F /  -2.1 °C 30.14in /  1020.5hPa Calm     93% 0.00in /  0mm 0 W/m2
01:44 30.2 °F /  -1 °C 28.4 °F /  -2 °C 30.14in /  1020.5hPa Calm     93% 0.00in /  0mm 0 W/m2
01:49 30.2 °F /  -1 °C 28.4 °F /  -2 °C 30.14in /  1020.5hPa Calm     93% 0.00in /  0mm 0 W/m2
01:54 30.2 °F /  -1 °C 28.4 °F /  -2 °C 30.14in /  1020.5hPa Calm     93% 0.00in /  0mm 0 W/m2
01:59 30.1 °F /  -1.1 °C 28.3 °F /  -2.1 °C 30.14in /  1020.5hPa Calm     93% 0.00in /  0mm 0 W/m2
02:04 30.1 °F /  -1.1 °C 28.3 °F /  -2.1 °C 30.14in /  1020.5hPa Calm     93% 0.00in /  0mm 0 W/m2
02:09 30 °F /  -1.1 °C 28.2 °F /  -2.1 °C 30.14in /  1020.5hPa Calm     93% 0.00in /  0mm 0 W/m2
02:14 30 °F /  -1.1 °C 28.2 °F /  -2.1 °C 30.14in /  1020.5hPa Calm     93% 0.00in /  0mm 0 W/m2
02:19 30 °F /  -1.1 °C 28.2 °F /  -2.1 °C 30.15in /  1020.9hPa Calm     93% 0.00in /  0mm 0 W/m2
02:24 30.1 °F /  -1.1 °C 28.3 °F /  -2.1 °C 30.15in /  1020.9hPa Calm     93% 0.00in /  0mm 0 W/m2
02:29 30.2 °F /  -1 °C 28.4 °F /  -2 °C 30.15in /  1020.9hPa Calm     93% 0.00in /  0mm 0 W/m2
02:34 30.2 °F /  -1 °C 28.4 °F /  -2 °C 30.14in /  1020.5hPa Calm     93% 0.00in /  0mm 0 W/m2
02:39 30.2 °F /  -1 °C 28.4 °F /  -2 °C 30.15in /  1020.9hPa Calm     93% 0.00in /  0mm 0 W/m2
02:44 30.2 °F /  -1 °C 28.4 °F /  -2 °C 30.14in /  1020.5hPa Calm     93% 0.00in /  0mm 0 W/m2
02:49 30.4 °F /  -0.9 °C 28.6 °F /  -1.9 °C 30.14in /  1020.5hPa Calm     93% 0.00in /  0mm 0 W/m2
02:54 30.4 °F /  -0.9 °C 28.6 °F /  -1.9 °C 30.15in /  1020.9hPa Calm     93% 0.00in /  0mm 0 W/m2
02:59 30.4 °F /  -0.9 °C 28.7 °F /  -1.8 °C 30.15in /  1020.9hPa Calm     93.2% 0.00in /  0mm 0 W/m2
03:04 30.5 °F /  -0.8 °C 28.8 °F /  -1.8 °C 30.15in /  1020.9hPa Calm     93.4% 0.00in /  0mm 0 W/m2
03:09 30.6 °F /  -0.8 °C 29 °F /  -1.7 °C 30.15in /  1020.9hPa Calm     93.6% 0.00in /  0mm 0 W/m2
03:14 30.8 °F /  -0.7 °C 29 °F /  -1.7 °C 30.15in /  1020.9hPa Calm     93% 0.00in /  0mm 0 W/m2
03:19 30.9 °F /  -0.6 °C 29.1 °F /  -1.6 °C 30.15in /  1020.9hPa Calm     93% 0.00in /  0mm 0 W/m2
03:24 31 °F /  -0.6 °C 29.5 °F /  -1.4 °C 30.15in /  1020.9hPa Calm     93.8% 0.00in /  0mm 0 W/m2
03:29 31.3 °F /  -0.4 °C 29.8 °F /  -1.2 °C 30.15in /  1020.9hPa Calm     94% 0.00in /  0mm 0 W/m2
03:34 31.5 °F /  -0.3 °C 30 °F /  -1.1 °C 30.15in /  1020.9hPa Calm     94% 0.00in /  0mm 0 W/m2
03:39 31.5 °F /  -0.3 °C 30 °F /  -1.1 °C 30.15in /  1020.9hPa Calm     94% 0.00in /  0mm 0 W/m2
03:44 31.5 °F /  -0.3 °C 30 °F /  -1.1 °C 30.15in /  1020.9hPa Calm     94% 0.00in /  0mm 0 W/m2
03:49 31.5 °F /  -0.3 °C 30 °F /  -1.1 °C 30.15in /  1020.9hPa Calm     94% 0.00in /  0mm 0 W/m2
03:54 31.6 °F /  -0.2 °C 30.2 °F /  -1 °C 30.16in /  1021.2hPa Calm     94% 0.00in /  0mm 0 W/m2
03:59 31.6 °F /  -0.2 °C 30.2 °F /  -1 °C 30.16in /  1021.2hPa Calm     94% 0.00in /  0mm 0 W/m2
04:04 31.9 °F /  -0.1 °C 30.5 °F /  -0.8 °C 30.16in /  1021.2hPa Calm     94% 0.00in /  0mm 0 W/m2
04:09 32 °F /  0 °C 30.6 °F /  -0.8 °C 30.15in /  1020.9hPa Calm     94% 0.00in /  0mm 0 W/m2
04:13 31.8 °F /  -0.1 °C 30.4 °F /  -0.9 °C 30.15in /  1020.9hPa Calm     94% 0.00in /  0mm 0 W/m2
04:19 32 °F /  0 °C 30.6 °F /  -0.8 °C 30.15in /  1020.9hPa Calm     94% 0.00in /  0mm 0 W/m2
04:24 32 °F /  0 °C 30.6 °F /  -0.8 °C 30.15in /  1020.9hPa Calm     94% 0.00in /  0mm 0 W/m2
04:29 32 °F /  0 °C 30.6 °F /  -0.8 °C 30.15in /  1020.9hPa Calm     94% 0.00in /  0mm 0 W/m2
04:34 31.9 °F /  -0.1 °C 30.5 °F /  -0.8 °C 30.15in /  1020.9hPa Calm     94% 0.00in /  0mm 0 W/m2
04:39 31.7 °F /  -0.2 °C 30.3 °F /  -0.9 °C 30.14in /  1020.5hPa Calm     94% 0.00in /  0mm 0 W/m2
04:44 31.6 °F /  -0.2 °C 30.2 °F /  -1 °C 30.14in /  1020.5hPa Calm     94% 0.00in /  0mm 0 W/m2
04:49 31.5 °F /  -0.3 °C 30.1 °F /  -1.1 °C 30.14in /  1020.5hPa Calm     94% 0.00in /  0mm 0 W/m2
04:54 31.5 °F /  -0.3 °C 30 °F /  -1.1 °C 30.15in /  1020.9hPa Calm     94% 0.00in /  0mm 0 W/m2
04:59 31.5 °F /  -0.3 °C 30 °F /  -1.1 °C 30.15in /  1020.9hPa Calm     94% 0.00in /  0mm 0 W/m2
05:04 31.4 °F /  -0.3 °C 29.9 °F /  -1.2 °C 30.15in /  1020.9hPa Calm     94% 0.00in /  0mm 0 W/m2
05:09 31.3 °F /  -0.4 °C 29.8 °F /  -1.2 °C 30.15in /  1020.9hPa Calm     94% 0.00in /  0mm 0 W/m2
05:14 31.3 °F /  -0.4 °C 29.8 °F /  -1.2 °C 30.15in /  1020.9hPa Calm     94% 0.00in /  0mm 0 W/m2
05:19 31.2 °F /  -0.4 °C 29.7 °F /  -1.3 °C 30.15in /  1020.9hPa Calm     94% 0.00in /  0mm 0 W/m2
05:24 31.1 °F /  -0.5 °C 29.7 °F /  -1.3 °C 30.15in /  1020.9hPa Calm     94% 0.00in /  0mm 0 W/m2
05:29 31 °F /  -0.6 °C 29.6 °F /  -1.3 °C 30.15in /  1020.9hPa Calm     94% 0.00in /  0mm 0 W/m2
05:34 30.9 °F /  -0.6 °C 29.5 °F /  -1.4 °C 30.15in /  1020.9hPa Calm     94% 0.00in /  0mm 0 W/m2
05:39 30.9 °F /  -0.6 °C 29.5 °F /  -1.4 °C 30.15in /  1020.9hPa Calm     94% 0.00in /  0mm 0 W/m2
05:44 30.8 °F /  -0.7 °C 29.4 °F /  -1.4 °C 30.15in /  1020.9hPa Calm     94% 0.00in /  0mm 0 W/m2
05:49 30.7 °F /  -0.7 °C 29.3 °F /  -1.5 °C 30.15in /  1020.9hPa Calm     94% 0.00in /  0mm 0 W/m2
05:54 30.7 °F /  -0.7 °C 29.3 °F /  -1.5 °C 30.15in /  1020.9hPa Calm     94% 0.00in /  0mm 0 W/m2
05:59 30.7 °F /  -0.7 °C 29.3 °F /  -1.5 °C 30.15in /  1020.9hPa Calm     94% 0.00in /  0mm 0 W/m2
06:04 30.7 °F /  -0.7 °C 29.3 °F /  -1.5 °C 30.15in /  1020.9hPa Calm     94% 0.00in /  0mm 0 W/m2
06:09 30.7 °F /  -0.7 °C 29.3 °F /  -1.5 °C 30.15in /  1020.9hPa Calm     94% 0.00in /  0mm 0 W/m2
06:14 30.7 °F /  -0.7 °C 29.3 °F /  -1.5 °C 30.15in /  1020.9hPa Calm     94% 0.00in /  0mm 0 W/m2
06:19 30.7 °F /  -0.7 °C 29.3 °F /  -1.5 °C 30.16in /  1021.2hPa Calm     94% 0.00in /  0mm 0 W/m2
06:24 30.6 °F /  -0.8 °C 29.2 °F /  -1.6 °C 30.16in /  1021.2hPa Calm     94% 0.00in /  0mm 0 W/m2
06:29 30.6 °F /  -0.8 °C 29.2 °F /  -1.6 °C 30.16in /  1021.2hPa Calm     94% 0.00in /  0mm 0 W/m2
06:34 30.7 °F /  -0.7 °C 29.3 °F /  -1.5 °C 30.16in /  1021.2hPa Calm     94% 0.00in /  0mm 0 W/m2
06:39 30.7 °F /  -0.7 °C 29.3 °F /  -1.5 °C 30.16in /  1021.2hPa Calm     94% 0.00in /  0mm 0 W/m2
06:44 30.6 °F /  -0.8 °C 29.1 °F /  -1.6 °C 30.15in /  1020.9hPa Calm     94% 0.00in /  0mm 0 W/m2
06:49 30.6 °F /  -0.8 °C 29.1 °F /  -1.6 °C 30.15in /  1020.9hPa Calm     94% 0.00in /  0mm 0 W/m2
06:53 30.6 °F /  -0.8 °C 29.1 °F /  -1.6 °C 30.15in /  1020.9hPa Calm     94% 0.00in /  0mm 0 W/m2
06:59 30.6 °F /  -0.8 °C 29.1 °F /  -1.6 °C 30.15in /  1020.9hPa Calm     94% 0.00in /  0mm 0 W/m2
07:04 30.6 °F /  -0.8 °C 29.1 °F /  -1.6 °C 30.15in /  1020.9hPa Calm     94% 0.00in /  0mm 0 W/m2
07:09 30.6 °F /  -0.8 °C 29.1 °F /  -1.6 °C 30.15in /  1020.9hPa Calm     94% 0.00in /  0mm 0 W/m2
07:14 30.6 °F /  -0.8 °C 29.1 °F /  -1.6 °C 30.15in /  1020.9hPa Calm     94% 0.00in /  0mm 0 W/m2
07:19 30.6 °F /  -0.8 °C 29.1 °F /  -1.6 °C 30.15in /  1020.9hPa Calm     94% 0.00in /  0mm 0 W/m2
07:24 30.6 °F /  -0.8 °C 29.1 °F /  -1.6 °C 30.16in /  1021.2hPa Calm     94% 0.00in /  0mm 0 W/m2
07:29 30.8 °F /  -0.7 °C 29.3 °F /  -1.5 °C 30.15in /  1020.9hPa Calm     94% 0.00in /  0mm 0 W/m2
07:34 32.1 °F /  0.1 °C 30.5 °F /  -0.8 °C 30.16in /  1021.2hPa Calm     94% 0.00in /  0mm 0 W/m2
07:39 32.1 °F /  0.1 °C 30.6 °F /  -0.8 °C 30.16in /  1021.2hPa Calm     94% 0.00in /  0mm 0 W/m2
07:44 31.6 °F /  -0.2 °C 30.2 °F /  -1 °C 30.16in /  1021.2hPa Calm     94% 0.00in /  0mm 0 W/m2
07:49 31.5 °F /  -0.3 °C 30 °F /  -1.1 °C 30.16in /  1021.2hPa Calm     94% 0.00in /  0mm 0 W/m2
07:54 31.2 °F /  -0.4 °C 29.8 °F /  -1.2 °C 30.16in /  1021.2hPa Calm     94% 0.00in /  0mm 0 W/m2
07:57 31.1 °F /  -0.5 °C 29.7 °F /  -1.3 °C 30.16in /  1021.2hPa Calm     94% 0.00in /  0mm 0 W/m2
08:04 31.1 °F /  -0.5 °C 29.7 °F /  -1.3 °C 30.16in /  1021.2hPa Calm     94% 0.00in /  0mm 5 W/m2
08:09 31.1 °F /  -0.5 °C 29.7 °F /  -1.3 °C 30.16in /  1021.2hPa Calm     94% 0.00in /  0mm 7 W/m2
08:14 31.2 °F /  -0.4 °C 29.7 °F /  -1.3 °C 30.16in /  1021.2hPa Calm     94% 0.00in /  0mm 11 W/m2
08:19 31.5 °F /  -0.3 °C 30 °F /  -1.1 °C 30.16in /  1021.2hPa Calm     94% 0.00in /  0mm 12 W/m2
08:24 31.7 °F /  -0.2 °C 30.3 °F /  -0.9 °C 30.16in /  1021.2hPa Calm     94% 0.00in /  0mm 14 W/m2
08:29 32.1 °F /  0.1 °C 30.6 °F /  -0.8 °C 30.16in /  1021.2hPa Calm     94% 0.00in /  0mm 18 W/m2
08:34 32.5 °F /  0.3 °C 30.9 °F /  -0.6 °C 30.16in /  1021.2hPa Calm     94% 0.00in /  0mm 18 W/m2
08:39 32.8 °F /  0.4 °C 31.2 °F /  -0.4 °C 30.16in /  1021.2hPa Calm     94% 0.00in /  0mm 21 W/m2
08:44 33.5 °F /  0.8 °C 31.9 °F /  -0.1 °C 30.16in /  1021.2hPa Calm     94% 0.00in /  0mm 25 W/m2
08:49 34 °F /  1.1 °C 32.4 °F /  0.2 °C 30.16in /  1021.2hPa Calm     94% 0.00in /  0mm 32 W/m2
08:53 34.3 °F /  1.3 °C 32.7 °F /  0.4 °C 30.16in /  1021.2hPa Calm     94% 0.00in /  0mm 40 W/m2
08:59 34.2 °F /  1.2 °C 32.6 °F /  0.3 °C 30.15in /  1020.9hPa Calm     94% 0.00in /  0mm 46 W/m2
09:04 34.2 °F /  1.2 °C 32.5 °F /  0.3 °C 30.15in /  1020.9hPa Calm     94% 0.00in /  0mm 42 W/m2
09:09 34.4 °F /  1.3 °C 32.8 °F /  0.4 °C 30.16in /  1021.2hPa Calm     94% 0.00in /  0mm 33 W/m2
09:14 34.9 °F /  1.6 °C 33.3 °F /  0.7 °C 30.16in /  1021.2hPa Calm     94% 0.01in /  0.25mm 35 W/m2
09:19 35 °F /  1.7 °C 33.3 °F /  0.7 °C 30.15in /  1020.9hPa Calm     94% 0.01in /  0.25mm 37 W/m2
09:24 35.2 °F /  1.8 °C 33.6 °F /  0.9 °C 30.15in /  1020.9hPa Calm     94% 0.01in /  0.25mm 39 W/m2
09:29 35.4 °F /  1.9 °C 33.8 °F /  1 °C 30.15in /  1020.9hPa Calm     94% 0.01in /  0.25mm 44 W/m2
09:34 36.3 °F /  2.4 °C 34.8 °F /  1.6 °C 30.15in /  1020.9hPa Calm     94.4% 0.01in /  0.25mm 46 W/m2
09:39 36.8 °F /  2.7 °C 35.1 °F /  1.7 °C 30.15in /  1020.9hPa Calm     94% 0.01in /  0.25mm 47 W/m2
09:44 37.2 °F /  2.9 °C 35.8 °F /  2.1 °C 30.15in /  1020.9hPa Calm     94.6% 0.01in /  0.25mm 51 W/m2
09:49 37.9 °F /  3.3 °C 36.6 °F /  2.6 °C 30.15in /  1020.9hPa SSW 0.4mph /  0.6km/h 2mph /  3.2km/h 95% 0.01in /  0.25mm 56 W/m2
09:54 38.1 °F /  3.4 °C 36.8 °F /  2.7 °C 30.16in /  1021.2hPa SSW 1mph /  1.6km/h 7mph /  11.3km/h 95% 0.01in /  0.25mm 67 W/m2
09:59 38.5 °F /  3.6 °C 37.2 °F /  2.9 °C 30.16in /  1021.2hPa SSW 2.4mph /  3.9km/h 12mph /  19.3km/h 95% 0.01in /  0.25mm 81 W/m2
10:04 38.7 °F /  3.7 °C 37.4 °F /  3 °C 30.16in /  1021.2hPa Calm   13mph /  20.9km/h 95% 0.01in /  0.25mm 95 W/m2
10:09 39 °F /  3.9 °C 37.8 °F /  3.2 °C 30.15in /  1020.9hPa SSW 3.2mph /  5.1km/h 13mph /  20.9km/h 95% 0.01in /  0.25mm 90 W/m2
10:14 39.7 °F /  4.3 °C 38.4 °F /  3.6 °C 30.15in /  1020.9hPa SSW 2.8mph /  4.5km/h 13mph /  20.9km/h 95% 0.00in /  0mm 79 W/m2
10:19 40.4 °F /  4.7 °C 39.1 °F /  3.9 °C 30.15in /  1020.9hPa SSW 2.4mph /  3.9km/h 7mph /  11.3km/h 95% 0.00in /  0mm 77 W/m2
10:24 40.7 °F /  4.8 °C 39.5 °F /  4.2 °C 30.15in /  1020.9hPa SSW 5mph /  8km/h 14mph /  22.5km/h 95% 0.00in /  0mm 49 W/m2
10:29 41.1 °F /  5.1 °C 39.8 °F /  4.3 °C 30.15in /  1020.9hPa SW 11.2mph /  18km/h 21mph /  33.8km/h 95% 0.00in /  0mm 46 W/m2
10:34 41.4 °F /  5.2 °C 40.1 °F /  4.5 °C 30.15in /  1020.9hPa West 5.8mph /  9.3km/h 22mph /  35.4km/h 95% 0.00in /  0mm 60 W/m2
10:38 41.6 °F /  5.3 °C 40.3 °F /  4.6 °C 30.15in /  1020.9hPa WSW 4.5mph /  7.2km/h 16mph /  25.7km/h 95% 0.00in /  0mm 74 W/m2
10:44 41.8 °F /  5.4 °C 40.5 °F /  4.7 °C 30.15in /  1020.9hPa West 4.2mph /  6.8km/h 9mph /  14.5km/h 95% 0.00in /  0mm 72 W/m2
10:49 42.1 °F /  5.6 °C 40.8 °F /  4.9 °C 30.15in /  1020.9hPa WSW 4mph /  6.4km/h 8mph /  12.9km/h 95% 0.00in /  0mm 77 W/m2
10:54 42.3 °F /  5.7 °C 41 °F /  5 °C 30.14in /  1020.5hPa SW 2.9mph /  4.7km/h 8mph /  12.9km/h 95% 0.00in /  0mm 88 W/m2
10:59 42.3 °F /  5.7 °C 41.1 °F /  5.1 °C 30.14in /  1020.5hPa WSW 2.5mph /  4km/h 6mph /  9.7km/h 95% 0.00in /  0mm 109 W/m2
11:04 42.5 °F /  5.8 °C 41.3 °F /  5.2 °C 30.14in /  1020.5hPa WSW 3.7mph /  6km/h 7mph /  11.3km/h 95% 0.00in /  0mm 137 W/m2
11:09 42.9 °F /  6.1 °C 41.6 °F /  5.3 °C 30.13in /  1020.2hPa SW 4.5mph /  7.2km/h 8mph /  12.9km/h 95% 0.00in /  0mm 155 W/m2
11:14 43.2 °F /  6.2 °C 42 °F /  5.6 °C 30.13in /  1020.2hPa SW 3mph /  4.8km/h 7mph /  11.3km/h 95% 0.00in /  0mm 156 W/m2
11:19 43.4 °F /  6.3 °C 42.2 °F /  5.7 °C 30.13in /  1020.2hPa West 3.2mph /  5.1km/h 9mph /  14.5km/h 95% 0.00in /  0mm 151 W/m2
11:24 43.7 °F /  6.5 °C 42.4 °F /  5.8 °C 30.13in /  1020.2hPa West 6.2mph /  10km/h 10mph /  16.1km/h 95% 0.00in /  0mm 156 W/m2
11:29 44 °F /  6.7 °C 42.8 °F /  6 °C 30.13in /  1020.2hPa WSW 4.5mph /  7.2km/h 7mph /  11.3km/h 95.6% 0.00in /  0mm 158 W/m2
11:34 44.2 °F /  6.8 °C 43 °F /  6.1 °C 30.13in /  1020.2hPa WSW 7.3mph /  11.7km/h 11mph /  17.7km/h 95% 0.00in /  0mm 144 W/m2
11:39 44.4 °F /  6.9 °C 43.3 °F /  6.3 °C 30.13in /  1020.2hPa WSW 5.2mph /  8.4km/h 11mph /  17.7km/h 95.4% 0.00in /  0mm 144 W/m2
11:44 44.7 °F /  7.1 °C 43.4 °F /  6.3 °C 30.12in /  1019.9hPa WSW 5.1mph /  8.2km/h 10mph /  16.1km/h 95% 0.00in /  0mm 146 W/m2
11:49 44.9 °F /  7.2 °C 43.6 °F /  6.4 °C 30.12in /  1019.9hPa WSW 4.1mph /  6.6km/h 8mph /  12.9km/h 95% 0.00in /  0mm 190 W/m2
11:54 45.2 °F /  7.3 °C 43.9 °F /  6.6 °C 30.12in /  1019.9hPa WSW 5mph /  8km/h 10mph /  16.1km/h 95% 0.00in /  0mm 190 W/m2
11:59 45.5 °F /  7.5 °C 44.2 °F /  6.8 °C 30.11in /  1019.5hPa SW 4.6mph /  7.4km/h 10mph /  16.1km/h 95% 0.00in /  0mm 174 W/m2
12:04 45.8 °F /  7.7 °C 44.4 °F /  6.9 °C 30.11in /  1019.5hPa SW 11.2mph /  18km/h 20mph /  32.2km/h 95% 0.00in /  0mm 163 W/m2
12:09 46.1 °F /  7.8 °C 44.5 °F /  6.9 °C 30.11in /  1019.5hPa SW 10.7mph /  17.2km/h 20mph /  32.2km/h 94.4% 0.00in /  0mm 200 W/m2
12:14 46.5 °F /  8.1 °C 44.9 °F /  7.2 °C 30.10in /  1019.2hPa WSW 7.4mph /  11.9km/h 16mph /  25.7km/h 94% 0.00in /  0mm 200 W/m2
12:19 46.7 °F /  8.2 °C 44.8 °F /  7.1 °C 30.10in /  1019.2hPa SW 6.3mph /  10.1km/h 10mph /  16.1km/h 93.2% 0.00in /  0mm 197 W/m2
12:24 46.9 °F /  8.3 °C 44.9 °F /  7.2 °C 30.10in /  1019.2hPa WSW 15mph /  24.1km/h 30mph /  48.3km/h 92.6% 0.00in /  0mm 202 W/m2
12:29 47.2 °F /  8.4 °C 44.8 °F /  7.1 °C 30.10in /  1019.2hPa WSW 9.7mph /  15.6km/h 20mph /  32.2km/h 91.4% 0.00in /  0mm 195 W/m2
12:34 47.5 °F /  8.6 °C 44.8 °F /  7.1 °C 30.10in /  1019.2hPa WSW 11.8mph /  19km/h 26mph /  41.8km/h 90.2% 0.00in /  0mm 179 W/m2
12:39 47.5 °F /  8.6 °C 44.4 °F /  6.9 °C 30.09in /  1018.8hPa SW 12.6mph /  20.3km/h 28mph /  45.1km/h 89% 0.00in /  0mm 172 W/m2
12:43 47.7 °F /  8.7 °C 44.3 °F /  6.8 °C 30.09in /  1018.8hPa WSW 0.2mph /  0.3km/h 17mph /  27.4km/h 88.3% 0.00in /  0mm 141 W/m2
12:49 47.6 °F /  8.7 °C 44.1 °F /  6.7 °C 30.09in /  1018.8hPa SW 6.1mph /  9.8km/h 28mph /  45.1km/h 87.8% 0.00in /  0mm 137 W/m2
12:54 47.5 °F /  8.6 °C 43.9 °F /  6.6 °C 30.09in /  1018.8hPa WSW 3.7mph /  6km/h 13mph /  20.9km/h 87% 0.00in /  0mm 123 W/m2
12:59 47.5 °F /  8.6 °C 43.9 °F /  6.6 °C 30.09in /  1018.8hPa WSW 5.3mph /  8.5km/h 10mph /  16.1km/h 87% 0.00in /  0mm 114 W/m2
13:04 47.5 °F /  8.6 °C 43.9 °F /  6.6 °C 30.08in /  1018.5hPa WSW 5.7mph /  9.2km/h 9mph /  14.5km/h 87% 0.00in /  0mm 113 W/m2
13:09 47.4 °F /  8.6 °C 43.8 °F /  6.6 °C 30.08in /  1018.5hPa SW 4.8mph /  7.7km/h 12mph /  19.3km/h 87% 0.00in /  0mm 118 W/m2
13:14 47.5 °F /  8.6 °C 43.9 °F /  6.6 °C 30.08in /  1018.5hPa WSW 2.7mph /  4.3km/h 8mph /  12.9km/h 87% 0.00in /  0mm 121 W/m2
13:18 47.5 °F /  8.6 °C 43.9 °F /  6.6 °C 30.08in /  1018.5hPa West 4.2mph /  6.8km/h 10mph /  16.1km/h 87% 0.00in /  0mm 118 W/m2
13:24 47.5 °F /  8.6 °C 43.9 °F /  6.6 °C 30.08in /  1018.5hPa SW 4.6mph /  7.4km/h 8mph /  12.9km/h 87% 0.00in /  0mm 114 W/m2
13:29 47.5 °F /  8.6 °C 43.6 °F /  6.4 °C 30.07in /  1018.2hPa SW 3.6mph /  5.8km/h 7mph /  11.3km/h 86.2% 0.00in /  0mm 104 W/m2
13:34 47.5 °F /  8.6 °C 43.5 °F /  6.4 °C 30.07in /  1018.2hPa SW 4.5mph /  7.2km/h 7mph /  11.3km/h 86% 0.00in /  0mm 102 W/m2
13:39 47.5 °F /  8.6 °C 43.5 °F /  6.4 °C 30.07in /  1018.2hPa WSW 5mph /  8km/h 9mph /  14.5km/h 86% 0.00in /  0mm 102 W/m2
13:44 47.6 °F /  8.7 °C 43.6 °F /  6.4 °C 30.07in /  1018.2hPa SW 6.2mph /  10km/h 9mph /  14.5km/h 86% 0.00in /  0mm 93 W/m2
13:49 47.7 °F /  8.7 °C 43.7 °F /  6.5 °C 30.07in /  1018.2hPa SW 4.2mph /  6.8km/h 11mph /  17.7km/h 86% 0.00in /  0mm 81 W/m2
13:53 47.7 °F /  8.7 °C 43.7 °F /  6.5 °C 30.06in /  1017.8hPa SW 4.2mph /  6.8km/h 10mph /  16.1km/h 86% 0.00in /  0mm 69 W/m2
13:59 47.7 °F /  8.7 °C 43.3 °F /  6.3 °C 30.06in /  1017.8hPa WSW 7.4mph /  11.9km/h 27mph /  43.5km/h 85% 0.00in /  0mm 58 W/m2
14:04 47.7 °F /  8.7 °C 43.3 °F /  6.3 °C 30.05in /  1017.5hPa SW 9.5mph /  15.3km/h 27mph /  43.5km/h 85% 0.00in /  0mm 54 W/m2
14:09 47.7 °F /  8.7 °C 43.3 °F /  6.3 °C 30.05in /  1017.5hPa SW 7.7mph /  12.4km/h 18mph /  29km/h 85% 0.00in /  0mm 58 W/m2
14:14 47.7 °F /  8.7 °C 43.3 °F /  6.3 °C 30.05in /  1017.5hPa WSW 6mph /  9.7km/h 18mph /  29km/h 85% 0.00in /  0mm 58 W/m2
14:19 47.7 °F /  8.7 °C 43.3 °F /  6.3 °C 30.05in /  1017.5hPa WSW 6mph /  9.7km/h 12mph /  19.3km/h 85% 0.00in /  0mm 49 W/m2
14:24 47.7 °F /  8.7 °C 43.3 °F /  6.3 °C 30.05in /  1017.5hPa SW 5.3mph /  8.5km/h 12mph /  19.3km/h 85% 0.00in /  0mm 44 W/m2
14:29 47.7 °F /  8.7 °C 43.3 °F /  6.3 °C 30.04in /  1017.2hPa WSW 7.4mph /  11.9km/h 13mph /  20.9km/h 85% 0.00in /  0mm 39 W/m2
14:34 47.7 °F /  8.7 °C 43.3 °F /  6.3 °C 30.04in /  1017.2hPa SW 5mph /  8km/h 11mph /  17.7km/h 85% 0.00in /  0mm 40 W/m2
14:39 47.7 °F /  8.7 °C 43.3 °F /  6.3 °C 30.04in /  1017.2hPa SW 5.4mph /  8.7km/h 11mph /  17.7km/h 85% 0.00in /  0mm 40 W/m2
14:44 47.8 °F /  8.8 °C 43.2 °F /  6.2 °C 30.04in /  1017.2hPa SW 8mph /  12.9km/h 13mph /  20.9km/h 84.4% 0.00in /  0mm 40 W/m2
14:49 47.8 °F /  8.8 °C 43.2 °F /  6.2 °C 30.04in /  1017.2hPa WSW 8.2mph /  13.2km/h 12mph /  19.3km/h 84% 0.00in /  0mm 39 W/m2
14:54 47.8 °F /  8.8 °C 43.2 °F /  6.2 °C 30.03in /  1016.8hPa SW 5.8mph /  9.3km/h 12mph /  19.3km/h 84% 0.00in /  0mm 35 W/m2
14:59 47.8 °F /  8.8 °C 43.2 °F /  6.2 °C 30.03in /  1016.8hPa WSW 6.6mph /  10.6km/h 12mph /  19.3km/h 84% 0.00in /  0mm 28 W/m2
15:04 47.7 °F /  8.7 °C 43 °F /  6.1 °C 30.03in /  1016.8hPa WSW 6.7mph /  10.8km/h 11mph /  17.7km/h 84% 0.00in /  0mm 26 W/m2
15:09 47.7 °F /  8.7 °C 43 °F /  6.1 °C 30.03in /  1016.8hPa West 6.8mph /  10.9km/h 12mph /  19.3km/h 84% 0.00in /  0mm 26 W/m2
15:14 47.7 °F /  8.7 °C 43 °F /  6.1 °C 30.03in /  1016.8hPa WSW 6mph /  9.7km/h 12mph /  19.3km/h 84% 0.00in /  0mm 25 W/m2
15:19 47.7 °F /  8.7 °C 42.8 °F /  6 °C 30.03in /  1016.8hPa WSW 6.7mph /  10.8km/h 13mph /  20.9km/h 83% 0.00in /  0mm 23 W/m2
15:24 47.7 °F /  8.7 °C 42.8 °F /  6 °C 30.03in /  1016.8hPa West 7.6mph /  12.2km/h 13mph /  20.9km/h 83% 0.00in /  0mm 21 W/m2
15:29 47.7 °F /  8.7 °C 42.4 °F /  5.8 °C 30.02in /  1016.5hPa WSW 6.4mph /  10.3km/h 11mph /  17.7km/h 82% 0.00in /  0mm 14 W/m2
15:34 47.7 °F /  8.7 °C 42.3 °F /  5.7 °C 30.03in /  1016.8hPa WSW 3.9mph /  6.3km/h 10mph /  16.1km/h 81.8% 0.00in /  0mm 9 W/m2
15:39 47.7 °F /  8.7 °C 42.1 °F /  5.6 °C 30.03in /  1016.8hPa WSW 5.1mph /  8.2km/h 11mph /  17.7km/h 81% 0.00in /  0mm 7 W/m2
15:44 47.7 °F /  8.7 °C 42.1 °F /  5.6 °C 30.02in /  1016.5hPa WSW 4.9mph /  7.9km/h 10mph /  16.1km/h 81% 0.00in /  0mm 5 W/m2
15:49 47.7 °F /  8.7 °C 41.8 °F /  5.4 °C 30.02in /  1016.5hPa WSW 6mph /  9.7km/h 11mph /  17.7km/h 80.2% 0.00in /  0mm 0 W/m2
15:54 47.7 °F /  8.7 °C 41.7 °F /  5.4 °C 30.02in /  1016.5hPa SW 6.1mph /  9.8km/h 8mph /  12.9km/h 80% 0.00in /  0mm 0 W/m2
15:59 47.7 °F /  8.7 °C 41.7 °F /  5.4 °C 30.02in /  1016.5hPa SW 4.3mph /  6.9km/h 10mph /  16.1km/h 80% 0.00in /  0mm 0 W/m2
16:04 47.6 °F /  8.7 °C 41.6 °F /  5.3 °C 30.01in /  1016.1hPa SW 7.5mph /  12.1km/h 11mph /  17.7km/h 80% 0.00in /  0mm 0 W/m2
16:09 47.7 °F /  8.7 °C 41.7 °F /  5.4 °C 30.01in /  1016.1hPa SW 8mph /  12.9km/h 14mph /  22.5km/h 80% 0.00in /  0mm 0 W/m2
16:14 47.7 °F /  8.7 °C 41.6 °F /  5.3 °C 30.01in /  1016.1hPa SW 7.6mph /  12.2km/h 14mph /  22.5km/h 79.4% 0.00in /  0mm 0 W/m2
16:19 47.6 °F /  8.7 °C 41.5 °F /  5.3 °C 30.01in /  1016.1hPa WSW 5.6mph /  9km/h 13mph /  20.9km/h 79% 0.00in /  0mm 0 W/m2
16:24 47.7 °F /  8.7 °C 41.4 °F /  5.2 °C 30.01in /  1016.1hPa SW 5.6mph /  9km/h 13mph /  20.9km/h 78.6% 0.00in /  0mm 0 W/m2
16:29 47.7 °F /  8.7 °C 41.2 °F /  5.1 °C 30.01in /  1016.1hPa SW 4mph /  6.4km/h 10mph /  16.1km/h 78% 0.00in /  0mm 0 W/m2
16:34 47.7 °F /  8.7 °C 41.2 °F /  5.1 °C 30.01in /  1016.1hPa SW 4.3mph /  6.9km/h 10mph /  16.1km/h 78% 0.00in /  0mm 0 W/m2
16:39 47.7 °F /  8.7 °C 41.2 °F /  5.1 °C 30.01in /  1016.1hPa SW 5.3mph /  8.5km/h 11mph /  17.7km/h 78% 0.00in /  0mm 0 W/m2
16:44 47.7 °F /  8.7 °C 41.2 °F /  5.1 °C 30.01in /  1016.1hPa SW 4.5mph /  7.2km/h 9mph /  14.5km/h 78% 0.00in /  0mm 0 W/m2
16:49 47.7 °F /  8.7 °C 41.2 °F /  5.1 °C 30.01in /  1016.1hPa SW 5.3mph /  8.5km/h 11mph /  17.7km/h 78% 0.00in /  0mm 0 W/m2
16:54 47.7 °F /  8.7 °C 41.2 °F /  5.1 °C 30.00in /  1015.8hPa SW 3.5mph /  5.6km/h 9mph /  14.5km/h 78% 0.00in /  0mm 0 W/m2
16:59 47.7 °F /  8.7 °C 41.2 °F /  5.1 °C 30.00in /  1015.8hPa SW 5.8mph /  9.3km/h 9mph /  14.5km/h 78% 0.00in /  0mm 0 W/m2
17:04 47.7 °F /  8.7 °C 41.2 °F /  5.1 °C 30.00in /  1015.8hPa SW 6.8mph /  10.9km/h 14mph /  22.5km/h 78% 0.00in /  0mm 0 W/m2
17:09 47.8 °F /  8.8 °C 41.4 °F /  5.2 °C 29.99in /  1015.5hPa SW 4.8mph /  7.7km/h 14mph /  22.5km/h 78% 0.00in /  0mm 0 W/m2
17:14 47.7 °F /  8.7 °C 41.2 °F /  5.1 °C 30.00in /  1015.8hPa SW 4mph /  6.4km/h 10mph /  16.1km/h 78% 0.00in /  0mm 0 W/m2
17:19 47.7 °F /  8.7 °C 41.2 °F /  5.1 °C 30.00in /  1015.8hPa SW 3.2mph /  5.1km/h 10mph /  16.1km/h 78% 0.00in /  0mm 0 W/m2
17:24 47.5 °F /  8.6 °C 41.4 °F /  5.2 °C 30.00in /  1015.8hPa WSW 5mph /  8km/h 9mph /  14.5km/h 79% 0.00in /  0mm 0 W/m2
17:29 47.5 °F /  8.6 °C 41.4 °F /  5.2 °C 29.99in /  1015.5hPa WSW 2.9mph /  4.7km/h 9mph /  14.5km/h 79% 0.00in /  0mm 0 W/m2
17:34 47.5 °F /  8.6 °C 41.4 °F /  5.2 °C 29.99in /  1015.5hPa WSW 7.3mph /  11.7km/h 15mph /  24.1km/h 79% 0.00in /  0mm 0 W/m2
17:39 47.9 °F /  8.8 °C 41.7 °F /  5.4 °C 29.99in /  1015.5hPa West 7mph /  11.3km/h 15mph /  24.1km/h 79% 0.00in /  0mm 0 W/m2
17:44 48 °F /  8.9 °C 41.9 °F /  5.5 °C 29.99in /  1015.5hPa SW 6.2mph /  10km/h 11mph /  17.7km/h 79% 0.00in /  0mm 0 W/m2
17:49 48.1 °F /  8.9 °C 41.8 °F /  5.4 °C 29.99in /  1015.5hPa SW 8.4mph /  13.5km/h 13mph /  20.9km/h 78.4% 0.00in /  0mm 0 W/m2
17:54 48.3 °F /  9.1 °C 41.8 °F /  5.4 °C 29.99in /  1015.5hPa SW 6.6mph /  10.6km/h 12mph /  19.3km/h 78% 0.00in /  0mm 0 W/m2
17:59 48.4 °F /  9.1 °C 41.9 °F /  5.5 °C 29.98in /  1015.1hPa SW 6.2mph /  10km/h 11mph /  17.7km/h 78% 0.00in /  0mm 0 W/m2
18:04 48.4 °F /  9.1 °C 42.3 °F /  5.7 °C 29.98in /  1015.1hPa SW 8.1mph /  13km/h 12mph /  19.3km/h 79% 0.00in /  0mm 0 W/m2
18:09 48.4 °F /  9.1 °C 42.3 °F /  5.7 °C 29.98in /  1015.1hPa SW 6.5mph /  10.5km/h 13mph /  20.9km/h 79% 0.00in /  0mm 0 W/m2
18:14 48.2 °F /  9 °C 42.1 °F /  5.6 °C 29.98in /  1015.1hPa SW 7.8mph /  12.6km/h 15mph /  24.1km/h 79% 0.00in /  0mm 0 W/m2
18:19 48.2 °F /  9 °C 42.1 °F /  5.6 °C 29.98in /  1015.1hPa SW 4.1mph /  6.6km/h 15mph /  24.1km/h 79% 0.00in /  0mm 0 W/m2
18:24 48.1 °F /  8.9 °C 42.1 °F /  5.6 °C 29.98in /  1015.1hPa WSW 6.3mph /  10.1km/h 9mph /  14.5km/h 79.3% 0.00in /  0mm 0 W/m2
18:29 48 °F /  8.9 °C 42.1 °F /  5.6 °C 29.98in /  1015.1hPa WSW 4.4mph /  7.1km/h 12mph /  19.3km/h 80% 0.00in /  0mm 0 W/m2
18:34 48 °F /  8.9 °C 42.1 °F /  5.6 °C 29.98in /  1015.1hPa WSW 7.4mph /  11.9km/h 12mph /  19.3km/h 80% 0.00in /  0mm 0 W/m2
18:39 48.2 °F /  9 °C 42.4 °F /  5.8 °C 29.98in /  1015.1hPa SW 6.4mph /  10.3km/h 14mph /  22.5km/h 80.6% 0.00in /  0mm 0 W/m2
18:44 48.2 °F /  9 °C 42.6 °F /  5.9 °C 29.98in /  1015.1hPa WSW 7mph /  11.3km/h 11mph /  17.7km/h 81% 0.00in /  0mm 0 W/m2
18:49 48.4 °F /  9.1 °C 42.8 °F /  6 °C 29.98in /  1015.1hPa SW 8.8mph /  14.2km/h 14mph /  22.5km/h 81% 0.00in /  0mm 0 W/m2
18:54 48.5 °F /  9.2 °C 42.8 °F /  6 °C 29.97in /  1014.8hPa WSW 6.5mph /  10.5km/h 14mph /  22.5km/h 81% 0.00in /  0mm 0 W/m2
18:59 48.6 °F /  9.2 °C 43 °F /  6.1 °C 29.97in /  1014.8hPa SW 8.2mph /  13.2km/h 16mph /  25.7km/h 81% 0.00in /  0mm 0 W/m2
19:04 48.6 °F /  9.2 °C 43.1 °F /  6.2 °C 29.97in /  1014.8hPa SW 7.5mph /  12.1km/h 16mph /  25.7km/h 81.6% 0.00in /  0mm 0 W/m2
19:09 48.6 °F /  9.2 °C 43.3 °F /  6.3 °C 29.97in /  1014.8hPa SW 6.4mph /  10.3km/h 12mph /  19.3km/h 82% 0.00in /  0mm 0 W/m2
19:14 48.7 °F /  9.3 °C 43.4 °F /  6.3 °C 29.97in /  1014.8hPa SW 8.4mph /  13.5km/h 13mph /  20.9km/h 82% 0.00in /  0mm 0 W/m2
19:19 48.7 °F /  9.3 °C 43.5 °F /  6.4 °C 29.96in /  1014.4hPa SW 7.4mph /  11.9km/h 12mph /  19.3km/h 82% 0.00in /  0mm 0 W/m2
19:24 48.9 °F /  9.4 °C 43.7 °F /  6.5 °C 29.96in /  1014.4hPa SW 7.8mph /  12.6km/h 15mph /  24.1km/h 82.2% 0.00in /  0mm 0 W/m2
19:29 48.9 °F /  9.4 °C 44 °F /  6.7 °C 29.96in /  1014.4hPa SW 7.1mph /  11.4km/h 15mph /  24.1km/h 82.8% 0.00in /  0mm 0 W/m2
19:34 49 °F /  9.4 °C 44.1 °F /  6.7 °C 29.96in /  1014.4hPa SSW 6.4mph /  10.3km/h 12mph /  19.3km/h 83% 0.00in /  0mm 0 W/m2
19:39 49.2 °F /  9.6 °C 44.3 °F /  6.8 °C 29.96in /  1014.4hPa SSW 3.8mph /  6.1km/h 12mph /  19.3km/h 83% 0.00in /  0mm 0 W/m2
19:44 49.3 °F /  9.6 °C 44.4 °F /  6.9 °C 29.96in /  1014.4hPa SW 3.1mph /  5km/h 11mph /  17.7km/h 83% 0.00in /  0mm 0 W/m2
19:49 49.3 °F /  9.6 °C 44.6 °F /  7 °C 29.95in /  1014.1hPa WSW 1.8mph /  2.9km/h 10mph /  16.1km/h 83.8% 0.00in /  0mm 0 W/m2
19:54 49.4 °F /  9.7 °C 44.7 °F /  7.1 °C 29.95in /  1014.1hPa WSW 1.2mph /  1.9km/h 7mph /  11.3km/h 84% 0.00in /  0mm 0 W/m2
19:59 49.5 °F /  9.7 °C 44.8 °F /  7.1 °C 29.95in /  1014.1hPa SW 0.4mph /  0.6km/h 4mph /  6.4km/h 84.2% 0.00in /  0mm 0 W/m2
20:04 49.5 °F /  9.7 °C 44.8 °F /  7.1 °C 29.94in /  1013.8hPa SW 5.5mph /  8.9km/h 11mph /  17.7km/h 84% 0.00in /  0mm 0 W/m2
20:09 49.6 °F /  9.8 °C 45.2 °F /  7.3 °C 29.94in /  1013.8hPa SW 5mph /  8km/h 17mph /  27.4km/h 84.6% 0.00in /  0mm 0 W/m2
20:14 49.6 °F /  9.8 °C 45.3 °F /  7.4 °C 29.94in /  1013.8hPa SW 1.2mph /  1.9km/h 17mph /  27.4km/h 85% 0.00in /  0mm 0 W/m2
20:19 49.6 °F /  9.8 °C 45.3 °F /  7.4 °C 29.94in /  1013.8hPa SW 3.4mph /  5.5km/h 17mph /  27.4km/h 85% 0.00in /  0mm 0 W/m2
20:24 49.8 °F /  9.9 °C 45.5 °F /  7.5 °C 29.94in /  1013.8hPa Calm   17mph /  27.4km/h 85% 0.00in /  0mm 0 W/m2
20:29 49.8 °F /  9.9 °C 45.7 °F /  7.6 °C 29.94in /  1013.8hPa SW 1mph /  1.6km/h 8mph /  12.9km/h 85.6% 0.00in /  0mm 0 W/m2
20:34 49.8 °F /  9.9 °C 45.9 °F /  7.7 °C 29.95in /  1014.1hPa SW 4.2mph /  6.8km/h 10mph /  16.1km/h 86% 0.00in /  0mm 0 W/m2
20:39 49.8 °F /  9.9 °C 45.9 °F /  7.7 °C 29.94in /  1013.8hPa SW 1mph /  1.6km/h 10mph /  16.1km/h 86% 0.00in /  0mm 0 W/m2
20:44 50 °F /  10 °C 46 °F /  7.8 °C 29.94in /  1013.8hPa WSW 4.1mph /  6.6km/h 8mph /  12.9km/h 86% 0.00in /  0mm 0 W/m2
20:49 50 °F /  10 °C 46 °F /  7.8 °C 29.94in /  1013.8hPa SSW 1.8mph /  2.9km/h 9mph /  14.5km/h 86% 0.00in /  0mm 0 W/m2
20:54 50.1 °F /  10.1 °C 46.1 °F /  7.8 °C 29.94in /  1013.8hPa SSW 4.7mph /  7.6km/h 9mph /  14.5km/h 86% 0.00in /  0mm 0 W/m2
20:59 50.2 °F /  10.1 °C 46.2 °F /  7.9 °C 29.94in /  1013.8hPa SW 6.4mph /  10.3km/h 10mph /  16.1km/h 86% 0.00in /  0mm 0 W/m2
21:04 50.2 °F /  10.1 °C 46.2 °F /  7.9 °C 29.94in /  1013.8hPa SSW 5.7mph /  9.2km/h 9mph /  14.5km/h 86% 0.00in /  0mm 0 W/m2
21:09 50.2 °F /  10.1 °C 46.2 °F /  7.9 °C 29.93in /  1013.4hPa SW 6.7mph /  10.8km/h 10mph /  16.1km/h 86% 0.00in /  0mm 0 W/m2
21:14 50.4 °F /  10.2 °C 46.4 °F /  8 °C 29.93in /  1013.4hPa SW 3.2mph /  5.1km/h 10mph /  16.1km/h 86% 0.00in /  0mm 0 W/m2
21:19 50.5 °F /  10.3 °C 46.5 °F /  8.1 °C 29.93in /  1013.4hPa SW 3.4mph /  5.5km/h 8mph /  12.9km/h 86% 0.00in /  0mm 0 W/m2
21:24 50.5 °F /  10.3 °C 46.6 °F /  8.1 °C 29.93in /  1013.4hPa SW 2.4mph /  3.9km/h 8mph /  12.9km/h 86% 0.00in /  0mm 0 W/m2
21:29 50.5 °F /  10.3 °C 46.6 °F /  8.1 °C 29.93in /  1013.4hPa SW 0.2mph /  0.3km/h 8mph /  12.9km/h 86% 0.00in /  0mm 0 W/m2
21:34 50.5 °F /  10.3 °C 46.6 °F /  8.1 °C 29.92in /  1013.1hPa SSW 5.8mph /  9.3km/h 12mph /  19.3km/h 86% 0.00in /  0mm 0 W/m2
21:39 50.6 °F /  10.3 °C 46.7 °F /  8.2 °C 29.92in /  1013.1hPa SW 9.5mph /  15.3km/h 14mph /  22.5km/h 86% 0.00in /  0mm 0 W/m2
21:44 50.7 °F /  10.4 °C 46.8 °F /  8.2 °C 29.92in /  1013.1hPa SW 7.4mph /  11.9km/h 14mph /  22.5km/h 86% 0.00in /  0mm 0 W/m2
21:49 50.7 °F /  10.4 °C 46.8 °F /  8.2 °C 29.91in /  1012.8hPa SW 8mph /  12.9km/h 14mph /  22.5km/h 86% 0.00in /  0mm 0 W/m2
21:54 50.7 °F /  10.4 °C 46.8 °F /  8.2 °C 29.91in /  1012.8hPa SW 7.3mph /  11.7km/h 12mph /  19.3km/h 86% 0.00in /  0mm 0 W/m2
21:59 50.7 °F /  10.4 °C 46.8 °F /  8.2 °C 29.91in /  1012.8hPa SW 9mph /  14.5km/h 13mph /  20.9km/h 86% 0.00in /  0mm 0 W/m2
22:04 50.7 °F /  10.4 °C 46.9 °F /  8.3 °C 29.91in /  1012.8hPa SW 6.9mph /  11.1km/h 13mph /  20.9km/h 86.6% 0.00in /  0mm 0 W/m2
22:09 50.7 °F /  10.4 °C 46.9 °F /  8.3 °C 29.91in /  1012.8hPa SSW 7.6mph /  12.2km/h 15mph /  24.1km/h 87% 0.00in /  0mm 0 W/m2
22:14 50.8 °F /  10.4 °C 47 °F /  8.3 °C 29.91in /  1012.8hPa SW 2.4mph /  3.9km/h 10mph /  16.1km/h 87% 0.00in /  0mm 0 W/m2
22:19 51.1 °F /  10.6 °C 47.3 °F /  8.5 °C 29.90in /  1012.4hPa SW 7.7mph /  12.4km/h 11mph /  17.7km/h 87% 0.00in /  0mm 0 W/m2
22:24 51.1 °F /  10.6 °C 47.3 °F /  8.5 °C 29.90in /  1012.4hPa SW 10.3mph /  16.6km/h 15mph /  24.1km/h 87% 0.00in /  0mm 0 W/m2
22:29 51.1 °F /  10.6 °C 47.3 °F /  8.5 °C 29.90in /  1012.4hPa SW 10.2mph /  16.4km/h 16mph /  25.7km/h 87% 0.00in /  0mm 0 W/m2
22:34 51.1 °F /  10.6 °C 47.3 °F /  8.5 °C 29.90in /  1012.4hPa SW 10.2mph /  16.4km/h 17mph /  27.4km/h 87% 0.00in /  0mm 0 W/m2
22:39 51.1 °F /  10.6 °C 47.3 °F /  8.5 °C 29.90in /  1012.4hPa SW 8.4mph /  13.5km/h 16mph /  25.7km/h 87% 0.00in /  0mm 0 W/m2
22:44 51.1 °F /  10.6 °C 47.3 °F /  8.5 °C 29.89in /  1012.1hPa SW 10.9mph /  17.5km/h 19mph /  30.6km/h 87% 0.00in /  0mm 0 W/m2
22:49 51.1 °F /  10.6 °C 47.3 °F /  8.5 °C 29.89in /  1012.1hPa SSW 6.6mph /  10.6km/h 17mph /  27.4km/h 87% 0.00in /  0mm 0 W/m2
22:54 51.1 °F /  10.6 °C 47.3 °F /  8.5 °C 29.89in /  1012.1hPa SSW 7mph /  11.3km/h 13mph /  20.9km/h 87% 0.00in /  0mm 0 W/m2
22:59 51.1 °F /  10.6 °C 47.3 °F /  8.5 °C 29.88in /  1011.7hPa SSW 7.1mph /  11.4km/h 14mph /  22.5km/h 87% 0.00in /  0mm 0 W/m2
23:04 51.3 °F /  10.7 °C 47.5 °F /  8.6 °C 29.88in /  1011.7hPa SW 5.7mph /  9.2km/h 13mph /  20.9km/h 87% 0.00in /  0mm 0 W/m2
23:09 51.3 °F /  10.7 °C 47.5 °F /  8.6 °C 29.88in /  1011.7hPa SSW 8.2mph /  13.2km/h 15mph /  24.1km/h 87% 0.00in /  0mm 0 W/m2
23:14 51.2 °F /  10.7 °C 47.7 °F /  8.7 °C 29.88in /  1011.7hPa SW 7.4mph /  11.9km/h 15mph /  24.1km/h 88% 0.00in /  0mm 0 W/m2
23:19 51.3 °F /  10.7 °C 47.8 °F /  8.8 °C 29.89in /  1012.1hPa SW 6.8mph /  10.9km/h 15mph /  24.1km/h 88% 0.00in /  0mm 0 W/m2
23:24 51.3 °F /  10.7 °C 47.8 °F /  8.8 °C 29.89in /  1012.1hPa SW 4.1mph /  6.6km/h 11mph /  17.7km/h 88% 0.00in /  0mm 0 W/m2
23:29 51.2 °F /  10.7 °C 47.7 °F /  8.7 °C 29.89in /  1012.1hPa SW 5.1mph /  8.2km/h 9mph /  14.5km/h 88% 0.00in /  0mm 0 W/m2
23:33 51.2 °F /  10.7 °C 47.7 °F /  8.7 °C 29.89in /  1012.1hPa SW 4.7mph /  7.6km/h 8mph /  12.9km/h 88% 0.00in /  0mm 0 W/m2
23:39 51.1 °F /  10.6 °C 47.7 °F /  8.7 °C 29.88in /  1011.7hPa SW 6.7mph /  10.8km/h 10mph /  16.1km/h 88% 0.00in /  0mm 0 W/m2
23:44 51.1 °F /  10.6 °C 47.7 °F /  8.7 °C 29.88in /  1011.7hPa SW 5.1mph /  8.2km/h 10mph /  16.1km/h 88% 0.00in /  0mm 0 W/m2
23:49 51.1 °F /  10.6 °C 47.7 °F /  8.7 °C 29.88in /  1011.7hPa SW 4.2mph /  6.8km/h 9mph /  14.5km/h 88% 0.00in /  0mm 0 W/m2
23:54 51.1 °F /  10.6 °C 47.7 °F /  8.7 °C 29.88in /  1011.7hPa SW 6.2mph /  10km/h 12mph /  19.3km/h 88% 0.00in /  0mm 0 W/m2
23:59 51.1 °F /  10.6 °C 47.8 °F /  8.8 °C 29.88in /  1011.7hPa SW 5.4mph /  8.7km/h 12mph /  19.3km/h 88.4% 0.00in /  0mm 0 W/m2
Bath Spa Weather
Compliments of Weather Underground - 2 mb